Gaschem Phoenix — ELUO6 — position and weather

sailwx.info

Track history (hours):
 
Tides and Currents Weather Stations Pressure Air Temp Water Temp Dewpoint Dewpoint Depression Visibility Wind Speed Wind Dir Waves Ship Positions

Gaschem Phoenix

Last reported at 2015-Aug-14 03:18 UTC. Time now 2015-Aug-30 03:37 UTC.
Position N 31°37' E 124°13'.
Warning: this ship's position is 16 days out of date.

Length 100 m; draft 4.6 m.

Type: Ship. MMSI: 636090235.

Date/timePositionNaut miles runAvg speedWind from/ knotsBaromVisibWave heightAir tempDewpointWater temp
2015-Aug-14 03:18N 31°37' E 124°13'1013.8
2015-Aug-14 02:33N 31°32' E 124°02'2713.1
2015-Aug-14 00:30N 31°20' E 123°33'1212.7
2015-Aug-13 23:32N 31°14' E 123°21'1512.8
2015-Aug-13 22:23N 31°07' E 123°06'1113.1
2015-Aug-13 21:33N 31°03' E 122°54'1313.0
2015-Aug-13 20:31N 30°57' E 122°40'1515.2
2015-Aug-13 19:34N 31°01' E 122°23'1414.0
2015-Aug-13 18:33N 31°03' E 122°07'1414.3
2015-Aug-13 17:33N 31°10' E 121°52'1312.7
2015-Aug-13 16:33N 31°19' E 121°42'1111.4
2015-Aug-13 15:34N 31°25' E 121°31'1010.4
2015-Aug-13 14:33N 31°32' E 121°22'1313.3
2015-Aug-13 13:33N 31°41' E 121°10'1714.2
2015-Aug-13 12:21N 31°50' E 120°54'1214.2
2015-Aug-13 11:32N 32°01' E 120°47'1413.4
2015-Aug-13 10:31N 32°04' E 120°31'1313.5
2015-Aug-13 09:33N 31°57' E 120°18'  
2015-Aug-10 05:29N 31°59' E 120°00'1510.7
2015-Aug-10 04:07N 31°57' E 120°18'711.8
2015-Aug-10 03:30N 32°02' E 120°24'9 9.0
2015-Aug-10 02:31N 32°02' E 120°35'1111.1
2015-Aug-10 01:34N 32°01' E 120°47'1210.7
2015-Aug-10 00:24N 31°50' E 120°54'910.7
2015-Aug-09 23:33N 31°46' E 121°04'1111.6
2015-Aug-09 22:33N 31°39' E 121°14'7 7.0
2015-Aug-09 21:33N 31°34' E 121°20'0 0.0
2015-Aug-09 20:32N 31°34' E 121°20'0 0.0
2015-Aug-09 19:32N 31°34' E 121°20'0 0.0
2015-Aug-09 18:28N 31°34' E 121°20'0 0.0
2015-Aug-09 17:31N 31°34' E 121°20'0 0.1
2015-Aug-09 16:33N 31°34' E 121°20'0 0.2
2015-Aug-09 15:33N 31°34' E 121°20'0 0.0
2015-Aug-09 14:33N 31°34' E 121°20'0 0.0
2015-Aug-09 13:26N 31°34' E 121°20'0 0.0
2015-Aug-09 12:32N 31°34' E 121°20'0 0.0
2015-Aug-09 11:28N 31°34' E 121°20'6 6.3
2015-Aug-09 10:33N 31°30' E 121°25'1110.5
2015-Aug-09 09:33N 31°23' E 121°35'1211.6
2015-Aug-09 08:33N 31°16' E 121°45'1313.4
2015-Aug-09 07:33N 31°07' E 121°57'1110.7
2015-Aug-09 06:33N 31°03' E 122°09'10 9.9
2015-Aug-09 05:33N 31°02' E 122°20'6 6.4
2015-Aug-09 04:33N 31°01' E 122°27'2 0.2
2015-Aug-08 22:06N 31°01' E 122°25'3 4.9
2015-Aug-08 21:33N 31°01' E 122°22'4 3.8
2015-Aug-08 20:33N 31°03' E 122°18'6 5.7
2015-Aug-08 19:33N 31°01' E 122°25'6 6.1
2015-Aug-08 18:33N 31°00' E 122°32'  
Track history (hours):
 
Tides and Currents Weather Stations Pressure Air Temp Water Temp Dewpoint Dewpoint Depression Visibility Wind Speed Wind Dir Waves Ship Positions

Gaschem Phoenix

Last reported at 2015-Aug-14 03:18 UTC. Time now 2015-Aug-30 03:37 UTC.
Position N 31°37' E 124°13'.
Warning: this ship's position is 16 days out of date.

Length 100 m; draft 4.6 m.

Type: Ship. MMSI: 636090235.

Date/timePositionNaut miles runAvg speedWind from/ knotsBaromVisibWave heightAir tempDewpointWater temp
2015-Aug-14 03:18N 31°37' E 124°13'1013.8
2015-Aug-14 02:33N 31°32' E 124°02'2713.1
2015-Aug-14 00:30N 31°20' E 123°33'1212.7
2015-Aug-13 23:32N 31°14' E 123°21'1512.8
2015-Aug-13 22:23N 31°07' E 123°06'1113.1
2015-Aug-13 21:33N 31°03' E 122°54'1313.0
2015-Aug-13 20:31N 30°57' E 122°40'1515.2
2015-Aug-13 19:34N 31°01' E 122°23'1414.0
2015-Aug-13 18:33N 31°03' E 122°07'1414.3
2015-Aug-13 17:33N 31°10' E 121°52'1312.7
2015-Aug-13 16:33N 31°19' E 121°42'1111.4
2015-Aug-13 15:34N 31°25' E 121°31'1010.4
2015-Aug-13 14:33N 31°32' E 121°22'1313.3
2015-Aug-13 13:33N 31°41' E 121°10'1714.2
2015-Aug-13 12:21N 31°50' E 120°54'1214.2
2015-Aug-13 11:32N 32°01' E 120°47'1413.4
2015-Aug-13 10:31N 32°04' E 120°31'1313.5
2015-Aug-13 09:33N 31°57' E 120°18'  
2015-Aug-10 05:29N 31°59' E 120°00'1510.7
2015-Aug-10 04:07N 31°57' E 120°18'711.8
2015-Aug-10 03:30N 32°02' E 120°24'9 9.0
2015-Aug-10 02:31N 32°02' E 120°35'1111.1
2015-Aug-10 01:34N 32°01' E 120°47'1210.7
2015-Aug-10 00:24N 31°50' E 120°54'910.7
2015-Aug-09 23:33N 31°46' E 121°04'1111.6
2015-Aug-09 22:33N 31°39' E 121°14'7 7.0
2015-Aug-09 21:33N 31°34' E 121°20'0 0.0
2015-Aug-09 20:32N 31°34' E 121°20'0 0.0
2015-Aug-09 19:32N 31°34' E 121°20'0 0.0
2015-Aug-09 18:28N 31°34' E 121°20'0 0.0
2015-Aug-09 17:31N 31°34' E 121°20'0 0.1
2015-Aug-09 16:33N 31°34' E 121°20'0 0.2
2015-Aug-09 15:33N 31°34' E 121°20'0 0.0
2015-Aug-09 14:33N 31°34' E 121°20'0 0.0
2015-Aug-09 13:26N 31°34' E 121°20'0 0.0
2015-Aug-09 12:32N 31°34' E 121°20'0 0.0
2015-Aug-09 11:28N 31°34' E 121°20'6 6.3
2015-Aug-09 10:33N 31°30' E 121°25'1110.5
2015-Aug-09 09:33N 31°23' E 121°35'1211.6
2015-Aug-09 08:33N 31°16' E 121°45'1313.4
2015-Aug-09 07:33N 31°07' E 121°57'1110.7
2015-Aug-09 06:33N 31°03' E 122°09'10 9.9
2015-Aug-09 05:33N 31°02' E 122°20'6 6.4
2015-Aug-09 04:33N 31°01' E 122°27'2 0.2
2015-Aug-08 22:06N 31°01' E 122°25'3 4.9
2015-Aug-08 21:33N 31°01' E 122°22'4 3.8
2015-Aug-08 20:33N 31°03' E 122°18'6 5.7
2015-Aug-08 19:33N 31°01' E 122°25'6 6.1
2015-Aug-08 18:33N 31°00' E 122°32'  

Dump ship's entire track history